createdAt,value
2022-12-13T00:00:19.270Z,47.75
2022-12-13T00:02:46.411Z,50.90
2022-12-13T00:05:14.123Z,45.88
2022-12-13T00:07:40.674Z,50.58
2022-12-13T00:10:07.563Z,53.63
2022-12-13T00:12:33.961Z,46.60
2022-12-13T00:15:00.270Z,46.35
2022-12-13T00:17:26.683Z,49.42
2022-12-13T00:19:53.234Z,52.22
2022-12-13T00:22:19.571Z,50.13
2022-12-13T00:24:46.343Z,49.85
2022-12-13T00:27:12.809Z,52.47
2022-12-13T00:29:39.169Z,52.50
2022-12-13T00:32:05.633Z,52.67
2022-12-13T00:34:32.075Z,48.13
2022-12-13T00:36:58.968Z,45.65
2022-12-13T00:39:25.371Z,44.60
2022-12-13T00:41:51.707Z,50.90
2022-12-13T00:44:19.762Z,49.28
2022-12-13T00:46:46.191Z,45.03
2022-12-13T00:49:13.406Z,51.22
2022-12-13T00:51:40.516Z,43.42
2022-12-13T00:54:07.040Z,47.67
2022-12-13T00:56:33.779Z,50.80
2022-12-13T00:59:00.338Z,49.45
2022-12-13T01:01:29.749Z,44.42
2022-12-13T01:03:59.217Z,48.83
2022-12-13T01:06:37.096Z,42.55
2022-12-13T01:09:06.777Z,44.58
2022-12-13T01:11:33.424Z,43.83
2022-12-13T01:14:00.100Z,41.70
2022-12-13T01:16:26.579Z,45.75
2022-12-13T01:18:52.953Z,40.88
2022-12-13T01:21:20.966Z,39.95
2022-12-13T01:23:49.035Z,42.83
2022-12-13T01:26:21.261Z,44.92
2022-12-13T01:28:48.323Z,46.13
2022-12-13T01:31:17.983Z,48.15
2022-12-13T01:33:44.382Z,50.13
2022-12-13T01:36:15.190Z,43.40
2022-12-13T01:38:42.407Z,41.00
2022-12-13T01:41:18.332Z,39.15
2022-12-13T01:43:44.953Z,40.22
2022-12-13T01:46:12.779Z,44.42
2022-12-13T01:48:45.077Z,42.22
2022-12-13T01:51:15.514Z,38.92
2022-12-13T01:53:45.335Z,38.47
2022-12-13T01:56:17.728Z,41.08
2022-12-13T01:58:45.687Z,39.80
2022-12-13T02:01:12.069Z,42.63
2022-12-13T02:03:38.823Z,47.13
2022-12-13T02:06:10.827Z,46.22
2022-12-13T02:08:40.128Z,43.65
2022-12-13T02:11:07.746Z,43.50
2022-12-13T02:13:34.183Z,41.60
2022-12-13T02:16:32.041Z,40.67
2022-12-13T02:19:34.272Z,34.42
2022-12-13T02:22:26.746Z,35.45
2022-12-13T02:25:28.929Z,39.60
2022-12-13T02:28:05.074Z,41.17
2022-12-13T02:30:54.590Z,38.55
2022-12-13T02:33:44.594Z,44.00
2022-12-13T02:36:24.350Z,38.45
2022-12-13T02:39:08.296Z,40.78
2022-12-13T02:41:46.389Z,40.05
2022-12-13T02:44:22.790Z,42.97
2022-12-13T02:46:59.933Z,40.60
2022-12-13T02:49:32.295Z,41.65
2022-12-13T02:52:00.350Z,54.45
2022-12-13T02:54:26.905Z,38.58
2022-12-13T02:56:54.863Z,42.40
2022-12-13T02:59:23.801Z,45.75
2022-12-13T03:02:30.606Z,42.50
2022-12-13T03:05:36.076Z,46.00
2022-12-13T03:08:22.175Z,37.33
2022-12-13T03:11:05.592Z,43.83
2022-12-13T03:13:48.910Z,39.28
2022-12-13T03:16:44.171Z,39.47
2022-12-13T03:19:12.228Z,42.87
2022-12-13T03:21:47.931Z,42.53
2022-12-13T03:24:17.909Z,40.50
2022-12-13T03:26:45.242Z,45.75
2022-12-13T03:29:11.579Z,43.40
2022-12-13T03:31:38.609Z,39.85
2022-12-13T03:34:04.930Z,43.72
2022-12-13T03:36:31.389Z,41.83
2022-12-13T03:38:57.997Z,40.08
2022-12-13T03:41:31.460Z,36.67
2022-12-13T03:44:08.511Z,40.33
2022-12-13T03:46:35.052Z,42.10
2022-12-13T03:49:01.607Z,41.72
2022-12-13T03:51:28.002Z,43.25
2022-12-13T03:53:54.345Z,38.95
2022-12-13T03:56:20.769Z,44.35
2022-12-13T03:58:47.091Z,42.03
2022-12-13T04:01:16.129Z,41.00
2022-12-13T04:03:44.700Z,39.92
2022-12-13T04:06:12.359Z,43.35
2022-12-13T04:08:39.422Z,38.83
2022-12-13T04:11:26.114Z,39.38
2022-12-13T04:13:53.965Z,37.15
2022-12-13T04:16:20.839Z,41.03
2022-12-13T04:18:47.483Z,43.33
2022-12-13T04:21:13.972Z,45.83
2022-12-13T04:23:40.356Z,42.28
2022-12-13T04:26:06.705Z,44.63
2022-12-13T04:28:33.202Z,41.28
2022-12-13T04:30:59.565Z,40.28
2022-12-13T04:33:25.968Z,40.15
2022-12-13T04:35:52.512Z,36.03
2022-12-13T04:38:19.389Z,37.80
2022-12-13T04:40:46.221Z,41.70
2022-12-13T04:43:12.616Z,37.00
2022-12-13T04:45:39.044Z,41.90
2022-12-13T04:48:05.831Z,40.70
2022-12-13T04:50:32.234Z,40.40
2022-12-13T04:52:58.565Z,37.53
2022-12-13T04:55:24.919Z,44.25
2022-12-13T04:57:51.372Z,42.67
2022-12-13T05:00:18.002Z,38.92
2022-12-13T05:02:44.382Z,41.30
2022-12-13T05:05:11.636Z,40.95
2022-12-13T05:07:42.100Z,44.00
2022-12-13T05:10:10.979Z,41.17
2022-12-13T05:12:37.309Z,36.38
2022-12-13T05:15:03.973Z,42.50
2022-12-13T05:17:30.495Z,35.72
2022-12-13T05:19:56.797Z,35.28
2022-12-13T05:22:23.182Z,36.78
2022-12-13T05:24:49.673Z,38.22
2022-12-13T05:27:25.220Z,43.83
2022-12-13T05:30:03.759Z,41.30
2022-12-13T05:32:42.597Z,41.50
2022-12-13T05:35:11.246Z,42.08
2022-12-13T05:37:37.613Z,41.28
2022-12-13T05:40:05.307Z,42.30
2022-12-13T05:42:31.746Z,43.42
2022-12-13T05:44:58.078Z,43.13
2022-12-13T05:47:24.626Z,41.72
2022-12-13T05:49:52.072Z,40.55
2022-12-13T05:52:20.406Z,42.22
2022-12-13T05:54:46.921Z,48.50
2022-12-13T05:57:13.949Z,41.63
2022-12-13T05:59:40.273Z,38.80
2022-12-13T06:02:06.954Z,39.67
2022-12-13T06:04:33.400Z,46.42
2022-12-13T06:06:59.742Z,41.05
2022-12-13T06:09:26.108Z,43.45
2022-12-13T06:11:52.566Z,38.67
2022-12-13T06:14:27.736Z,36.83
2022-12-13T06:16:54.181Z,36.17
2022-12-13T06:19:21.787Z,37.30
2022-12-13T06:21:48.789Z,39.60
2022-12-13T06:24:17.087Z,41.92
2022-12-13T06:26:45.060Z,37.67
2022-12-13T06:29:13.822Z,42.05
2022-12-13T06:32:01.035Z,40.10
2022-12-13T06:34:30.148Z,40.15
2022-12-13T06:36:57.151Z,36.45
2022-12-13T06:39:23.571Z,40.55
2022-12-13T06:41:49.912Z,43.60
2022-12-13T06:44:16.255Z,41.00
2022-12-13T06:46:42.879Z,42.70
2022-12-13T06:49:09.524Z,41.22
2022-12-13T06:51:35.914Z,35.15
2022-12-13T06:54:02.835Z,38.42
2022-12-13T06:56:30.081Z,38.53
2022-12-13T06:59:01.423Z,38.53
2022-12-13T07:01:36.627Z,43.15
2022-12-13T07:04:03.945Z,42.53
2022-12-13T07:06:30.322Z,37.00
2022-12-13T07:08:57.713Z,38.05
2022-12-13T07:11:26.800Z,42.25
2022-12-13T07:13:53.898Z,38.85
2022-12-13T07:16:22.056Z,37.38
2022-12-13T07:18:53.303Z,45.08
2022-12-13T07:21:28.139Z,39.47
2022-12-13T07:23:55.417Z,43.80
2022-12-13T07:26:22.507Z,41.30
2022-12-13T07:28:54.668Z,47.83
2022-12-13T07:31:21.707Z,45.08
2022-12-13T07:33:48.159Z,40.92
2022-12-13T07:36:17.162Z,43.65
2022-12-13T07:38:43.510Z,40.65
2022-12-13T07:41:11.773Z,39.33
2022-12-13T07:43:38.403Z,41.88
2022-12-13T07:46:06.761Z,42.35
2022-12-13T07:48:33.689Z,42.60
2022-12-13T07:51:06.851Z,47.13
2022-12-13T07:53:34.353Z,44.53
2022-12-13T07:56:05.310Z,40.97
2022-12-13T07:58:33.322Z,44.58
2022-12-13T08:01:01.635Z,39.33
2022-12-13T08:03:28.440Z,43.10
2022-12-13T08:06:19.161Z,40.75
2022-12-13T08:08:46.443Z,45.72
2022-12-13T08:11:15.387Z,46.83
2022-12-13T08:13:41.870Z,47.05
2022-12-13T08:16:28.158Z,46.80
2022-12-13T08:19:03.162Z,43.38
2022-12-13T08:21:57.346Z,47.30
2022-12-13T08:24:26.609Z,44.15
2022-12-13T08:26:53.006Z,42.35
2022-12-13T08:29:23.385Z,44.22
2022-12-13T08:32:06.511Z,49.05
2022-12-13T08:34:32.941Z,49.25
2022-12-13T08:37:02.397Z,54.78
2022-12-13T08:39:37.599Z,50.60
2022-12-13T08:42:18.803Z,52.75
2022-12-13T08:44:47.783Z,45.25
2022-12-13T08:47:23.377Z,38.83
2022-12-13T08:49:55.813Z,39.47
2022-12-13T08:52:28.880Z,42.38
2022-12-13T08:54:55.289Z,43.28
2022-12-13T08:57:21.611Z,42.03
2022-12-13T08:59:47.966Z,42.42
2022-12-13T09:02:15.195Z,45.25
2022-12-13T09:04:42.261Z,40.25
2022-12-13T09:07:08.710Z,41.97
2022-12-13T09:09:35.048Z,40.80
2022-12-13T09:12:10.852Z,43.03
2022-12-13T09:14:50.643Z,44.50
2022-12-13T09:17:24.021Z,43.22
2022-12-13T09:19:51.768Z,39.67
2022-12-13T09:22:33.338Z,37.92
2022-12-13T09:25:02.340Z,39.13
2022-12-13T09:27:30.471Z,43.20
2022-12-13T09:29:57.332Z,36.63
2022-12-13T09:32:24.778Z,40.08
2022-12-13T09:34:51.260Z,39.10
2022-12-13T09:37:23.034Z,42.00
2022-12-13T09:39:54.973Z,42.55
2022-12-13T09:42:30.598Z,39.75
2022-12-13T09:45:06.379Z,38.83
2022-12-13T09:47:51.005Z,39.63
2022-12-13T09:50:38.645Z,42.15
2022-12-13T09:53:12.082Z,39.97
2022-12-13T09:55:50.033Z,37.38
2022-12-13T09:58:23.828Z,36.85
2022-12-13T10:00:53.558Z,42.10
2022-12-13T10:03:21.900Z,39.58
2022-12-13T10:05:58.681Z,37.22
2022-12-13T10:08:35.431Z,41.10
2022-12-13T10:11:01.769Z,44.60
2022-12-13T10:13:48.651Z,42.55
2022-12-13T10:16:28.319Z,38.78
2022-12-13T10:19:29.299Z,40.13
2022-12-13T10:22:02.288Z,42.20
2022-12-13T10:24:48.385Z,39.25
2022-12-13T10:27:25.471Z,35.90
2022-12-13T10:30:00.658Z,35.92
2022-12-13T10:32:27.633Z,36.72
2022-12-13T10:34:57.250Z,39.03
2022-12-13T10:37:23.517Z,37.30
2022-12-13T10:39:50.258Z,37.25
2022-12-13T10:42:23.563Z,37.45
2022-12-13T10:45:15.529Z,37.55
2022-12-13T10:47:44.578Z,35.67
2022-12-13T10:50:24.561Z,39.50
2022-12-13T10:52:51.491Z,36.20
2022-12-13T10:55:38.162Z,38.17
2022-12-13T10:58:07.344Z,36.55
2022-12-13T11:00:45.175Z,33.40
2022-12-13T11:03:34.800Z,40.67
2022-12-13T11:06:15.353Z,36.13
2022-12-13T11:08:41.776Z,34.50
2022-12-13T11:11:09.443Z,39.70
2022-12-13T11:13:46.432Z,35.15
2022-12-13T11:16:21.100Z,37.50
2022-12-13T11:18:53.733Z,37.27
2022-12-13T11:21:26.380Z,35.42
2022-12-13T11:23:56.194Z,37.17
2022-12-13T11:26:28.674Z,34.17
2022-12-13T11:29:00.725Z,35.22
2022-12-13T11:31:53.844Z,38.35
2022-12-13T11:34:54.119Z,35.15
2022-12-13T11:37:39.718Z,35.90
2022-12-13T11:40:16.927Z,34.60
2022-12-13T11:42:49.706Z,34.28
2022-12-13T11:45:31.726Z,32.42
2022-12-13T11:48:10.406Z,33.35
2022-12-13T11:50:42.974Z,33.15
2022-12-13T11:53:20.155Z,35.15
2022-12-13T11:55:54.227Z,35.35
2022-12-13T11:59:00.651Z,36.90
2022-12-13T12:01:32.107Z,33.45
2022-12-13T12:04:19.343Z,33.30
2022-12-13T12:07:08.283Z,34.08
2022-12-13T12:09:55.658Z,33.33
2022-12-13T12:12:31.913Z,34.35
2022-12-13T12:15:16.121Z,33.38
2022-12-13T12:17:43.952Z,32.70
2022-12-13T12:20:14.533Z,33.45
2022-12-13T12:23:14.540Z,31.23
2022-12-13T12:25:54.006Z,32.15
2022-12-13T12:28:44.827Z,33.58
2022-12-13T12:31:34.803Z,30.65
2022-12-13T12:34:34.707Z,34.55
2022-12-13T12:37:20.339Z,32.22
2022-12-13T12:39:58.816Z,30.17
2022-12-13T12:43:13.288Z,33.88
2022-12-13T12:45:56.500Z,31.20
2022-12-13T12:48:56.480Z,31.92
2022-12-13T12:51:38.412Z,30.60
2022-12-13T12:54:32.763Z,33.65
2022-12-13T12:57:11.504Z,31.02
2022-12-13T12:59:45.223Z,34.95
2022-12-13T13:02:26.599Z,34.45
2022-12-13T13:04:59.436Z,38.72
2022-12-13T13:07:43.297Z,32.15
2022-12-13T13:10:27.028Z,34.40
2022-12-13T13:15:39.476Z,29.58
2022-12-13T13:18:46.269Z,30.63
2022-12-13T13:21:30.873Z,30.88
2022-12-13T13:24:09.249Z,34.58
2022-12-13T13:26:45.262Z,35.83
2022-12-13T13:29:27.156Z,33.42
2022-12-13T13:32:28.376Z,36.70
2022-12-13T13:35:37.526Z,30.75
2022-12-13T13:38:24.815Z,35.55
2022-12-13T13:40:51.387Z,37.10
2022-12-13T13:43:32.216Z,33.20
2022-12-13T13:46:02.099Z,31.67
2022-12-13T13:49:09.817Z,35.28
2022-12-13T13:52:16.809Z,34.40
2022-12-13T13:55:06.628Z,33.58
2022-12-13T13:58:10.891Z,34.30
2022-12-13T14:01:29.249Z,31.83
2022-12-13T14:04:27.099Z,31.73
2022-12-13T14:07:33.647Z,29.38
2022-12-13T14:10:20.405Z,33.30
2022-12-13T14:13:25.013Z,33.35
2022-12-13T14:16:07.579Z,31.05
2022-12-13T14:19:20.522Z,31.48
2022-12-13T14:22:01.224Z,32.45
2022-12-13T14:24:34.971Z,33.05
2022-12-13T14:27:24.725Z,37.10
2022-12-13T14:29:58.320Z,32.63
2022-12-13T14:32:29.042Z,32.15
2022-12-13T14:34:56.919Z,33.30
2022-12-13T14:37:32.280Z,30.50
2022-12-13T14:40:00.653Z,32.83
2022-12-13T14:42:35.649Z,33.40
2022-12-13T14:45:36.518Z,33.92
2022-12-13T14:48:14.161Z,27.33
2022-12-13T14:50:43.655Z,28.00
2022-12-13T14:53:25.493Z,32.97
2022-12-13T14:56:28.563Z,32.15
2022-12-13T14:59:12.126Z,30.10
2022-12-13T15:01:39.249Z,34.15
2022-12-13T15:04:24.215Z,37.63
2022-12-13T15:07:01.475Z,31.23
2022-12-13T15:09:29.380Z,33.90
2022-12-13T15:12:14.487Z,32.63
2022-12-13T15:14:53.512Z,31.30
2022-12-13T15:17:30.683Z,32.28
2022-12-13T15:19:58.063Z,34.90
2022-12-13T15:22:29.339Z,33.25
2022-12-13T15:24:57.840Z,34.25
2022-12-13T15:27:25.075Z,38.30
2022-12-13T15:29:52.079Z,37.00
2022-12-13T15:32:22.637Z,51.50
2022-12-13T15:34:51.084Z,59.38
2022-12-13T15:37:28.077Z,58.10
2022-12-13T15:40:00.433Z,47.65
2022-12-13T15:42:36.824Z,47.67
2022-12-13T15:45:25.722Z,47.38
2022-12-13T15:47:54.668Z,42.25
2022-12-13T15:50:35.135Z,42.30
2022-12-13T15:53:26.467Z,36.97
2022-12-13T15:55:53.225Z,42.80
2022-12-13T15:58:37.655Z,42.05
2022-12-13T16:01:06.984Z,42.03
2022-12-13T16:03:44.566Z,42.50
2022-12-13T16:06:18.068Z,43.30
2022-12-13T16:08:49.320Z,47.00
2022-12-13T16:11:24.800Z,45.28
2022-12-13T16:16:31.165Z,37.92
2022-12-13T16:18:59.610Z,39.72
2022-12-13T16:21:27.578Z,37.67
2022-12-13T16:23:54.557Z,43.28
2022-12-13T16:26:23.929Z,46.97
2022-12-13T16:28:50.358Z,47.92
2022-12-13T16:31:25.667Z,41.65
2022-12-13T16:33:52.624Z,44.75
2022-12-13T16:36:20.073Z,44.67
2022-12-13T16:38:46.483Z,51.67
2022-12-13T16:41:14.602Z,40.35
2022-12-13T16:43:53.591Z,42.17
2022-12-13T16:47:12.237Z,45.15
2022-12-13T16:49:18.945Z,35.60
2022-12-13T16:51:48.498Z,38.10
2022-12-13T16:54:16.742Z,36.20
2022-12-13T16:56:43.479Z,35.55
2022-12-13T16:59:14.838Z,41.75
2022-12-13T17:01:42.315Z,42.15
2022-12-13T17:04:19.651Z,40.22
2022-12-13T17:06:48.047Z,42.97
2022-12-13T17:09:14.355Z,52.38
2022-12-13T17:11:41.238Z,58.53
2022-12-13T17:14:07.602Z,46.47
2022-12-13T17:16:34.055Z,42.78
2022-12-13T17:19:00.489Z,48.22
2022-12-13T17:21:27.056Z,50.97
2022-12-13T17:23:54.844Z,51.88
2022-12-13T17:26:21.407Z,50.90
2022-12-13T17:28:48.075Z,52.60
2022-12-13T17:31:14.493Z,52.38
2022-12-13T17:33:41.833Z,54.22
2022-12-13T17:36:09.719Z,50.47
2022-12-13T17:38:37.555Z,49.17
2022-12-13T17:41:03.983Z,52.38
2022-12-13T17:43:34.660Z,48.33
2022-12-13T17:46:03.814Z,45.38
2022-12-13T17:48:37.211Z,44.38
2022-12-13T17:51:08.194Z,45.28
2022-12-13T17:53:35.690Z,45.78
2022-12-13T17:56:05.562Z,47.17
2022-12-13T17:58:32.222Z,46.28
2022-12-13T18:00:59.563Z,47.47
2022-12-13T18:03:26.676Z,44.67
2022-12-13T18:05:58.031Z,41.28
2022-12-13T18:08:27.116Z,51.72
2022-12-13T18:11:24.030Z,52.40
2022-12-13T18:13:44.194Z,50.15
2022-12-13T18:16:13.697Z,49.70
2022-12-13T18:18:40.416Z,46.35
2022-12-13T18:21:12.463Z,49.38
2022-12-13T18:23:39.062Z,47.90
2022-12-13T18:26:11.038Z,49.90
2022-12-13T18:28:38.635Z,44.70
2022-12-13T18:31:09.328Z,41.55
2022-12-13T18:33:36.107Z,42.85
2022-12-13T18:36:02.652Z,44.78
2022-12-13T18:38:35.996Z,43.42
2022-12-13T18:41:07.213Z,44.00
2022-12-13T18:43:33.609Z,46.00
2022-12-13T18:46:02.787Z,39.92
2022-12-13T18:48:29.795Z,48.72
2022-12-13T18:51:00.122Z,43.15
2022-12-13T18:53:28.269Z,42.72
2022-12-13T18:56:02.580Z,43.28
2022-12-13T18:58:29.003Z,42.65
2022-12-13T19:00:57.313Z,39.40
2022-12-13T19:03:25.266Z,42.80
2022-12-13T19:05:52.985Z,41.33
2022-12-13T19:08:19.294Z,42.40
2022-12-13T19:10:46.091Z,40.65
2022-12-13T19:13:12.410Z,43.25
2022-12-13T19:15:40.319Z,40.05
2022-12-13T19:18:06.928Z,44.90
2022-12-13T19:20:33.307Z,40.97
2022-12-13T19:22:59.695Z,42.20
2022-12-13T19:25:26.028Z,41.70
2022-12-13T19:27:56.548Z,41.28
2022-12-13T19:30:23.727Z,40.97
2022-12-13T19:32:51.143Z,44.13
2022-12-13T19:35:19.359Z,38.63
2022-12-13T19:37:45.759Z,44.97
2022-12-13T19:40:12.263Z,45.08
2022-12-13T19:42:38.586Z,48.63
2022-12-13T19:45:05.850Z,43.72
2022-12-13T19:47:32.194Z,41.22
2022-12-13T19:49:58.503Z,45.95
2022-12-13T19:52:24.826Z,42.42
2022-12-13T19:54:51.151Z,44.17
2022-12-13T19:57:17.498Z,44.92
2022-12-13T19:59:43.899Z,47.78
2022-12-13T20:02:13.734Z,46.45
2022-12-13T20:04:40.656Z,52.45
2022-12-13T20:07:07.088Z,48.42
2022-12-13T20:09:33.511Z,52.65
2022-12-13T20:11:59.838Z,45.40
2022-12-13T20:14:26.171Z,50.35
2022-12-13T20:16:52.648Z,51.20
2022-12-13T20:19:19.247Z,49.22
2022-12-13T20:21:46.348Z,48.88
2022-12-13T20:24:12.707Z,53.42
2022-12-13T20:26:39.040Z,50.08
2022-12-13T20:29:05.504Z,42.22
2022-12-13T20:31:34.325Z,38.42
2022-12-13T20:34:08.990Z,34.58
2022-12-13T20:36:36.442Z,30.20
2022-12-13T20:39:04.881Z,32.50
2022-12-13T20:41:33.321Z,28.50
2022-12-13T20:44:00.928Z,25.52
2022-12-13T20:46:28.862Z,28.50
2022-12-13T20:48:57.611Z,24.55
2022-12-13T20:51:26.521Z,26.38
2022-12-13T20:53:53.741Z,24.70
2022-12-13T20:56:22.942Z,24.33
2022-12-13T20:58:50.291Z,24.70
2022-12-13T21:01:19.168Z,29.48
2022-12-13T21:03:46.538Z,25.95
2022-12-13T21:06:13.190Z,23.65
2022-12-13T21:08:51.845Z,23.70
2022-12-13T21:11:25.992Z,25.10
2022-12-13T21:13:55.314Z,24.35
2022-12-13T21:16:23.315Z,23.02
2022-12-13T21:18:52.671Z,24.52
2022-12-13T21:21:19.721Z,20.45
2022-12-13T21:23:47.189Z,20.98
2022-12-13T21:26:13.754Z,24.45
2022-12-13T21:28:40.548Z,22.55
2022-12-13T21:31:09.426Z,21.98
2022-12-13T21:33:37.585Z,20.55
2022-12-13T21:36:16.607Z,23.23
2022-12-13T21:38:44.036Z,18.48
2022-12-13T21:41:11.410Z,22.17
2022-12-13T21:43:39.046Z,17.92
2022-12-13T21:46:12.236Z,24.15
2022-12-13T21:48:40.513Z,19.40
2022-12-13T21:51:08.893Z,19.90
2022-12-13T21:53:35.349Z,19.17
2022-12-13T21:56:20.126Z,24.55
2022-12-13T21:59:05.537Z,22.63
2022-12-13T22:01:50.295Z,21.52
2022-12-13T22:04:18.378Z,22.20
2022-12-13T22:06:44.889Z,22.00
2022-12-13T22:09:11.583Z,23.55
2022-12-13T22:11:38.623Z,22.85
2022-12-13T22:14:05.794Z,20.13
2022-12-13T22:16:32.613Z,19.88
2022-12-13T22:18:59.056Z,18.73
2022-12-13T22:21:25.573Z,21.88
2022-12-13T22:23:55.808Z,18.60
2022-12-13T22:26:23.898Z,21.02
2022-12-13T22:28:51.075Z,20.30
2022-12-13T22:31:18.264Z,18.25
2022-12-13T22:33:44.913Z,18.77
2022-12-13T22:36:11.800Z,20.17
2022-12-13T22:38:38.338Z,20.95
2022-12-13T22:41:06.113Z,23.80
2022-12-13T22:43:36.124Z,21.48
2022-12-13T22:46:08.337Z,18.20
2022-12-13T22:48:35.249Z,20.13
2022-12-13T22:51:11.680Z,17.55
2022-12-13T22:53:38.962Z,18.45
2022-12-13T22:56:08.130Z,19.98
2022-12-13T22:58:35.772Z,19.83
2022-12-13T23:01:09.321Z,21.33
2022-12-13T23:03:37.354Z,18.65
2022-12-13T23:06:08.782Z,19.95
2022-12-13T23:08:38.884Z,17.85
2022-12-13T23:11:29.214Z,16.85
2022-12-13T23:13:58.146Z,16.35
2022-12-13T23:16:27.430Z,16.60
2022-12-13T23:19:10.925Z,16.58
2022-12-13T23:21:41.949Z,15.07
2022-12-13T23:24:15.111Z,14.95
2022-12-13T23:26:41.796Z,18.55
2022-12-13T23:29:09.425Z,16.15
2022-12-13T23:31:39.081Z,15.75
2022-12-13T23:34:06.223Z,17.02
2022-12-13T23:36:34.191Z,18.45
2022-12-13T23:39:02.517Z,17.08
2022-12-13T23:41:33.744Z,17.05
2022-12-13T23:44:01.437Z,15.65
2022-12-13T23:46:33.841Z,17.35
2022-12-13T23:49:01.898Z,18.00
2022-12-13T23:51:29.188Z,18.80
2022-12-13T23:53:55.859Z,15.75
2022-12-13T23:56:23.498Z,16.50
2022-12-13T23:58:50.524Z,17.52
